Time;durP1;ratioP1;P1;durP2;ratioP2;P2;SDS_P1;SDS_P2;PMS_P1;PMS_P2;Temp;Humidity;BMP_temperature;BMP_pressure;BME280_temperature;BME280_humidity;BME280_pressure;Samples;Min_cycle;Max_cycle;Signal;HPM_P1;HPM_P2
2022/03/06 00:02:03;;;;;;;6.10;3.77;;;;;;;3.88;44.85;99373.16;5097662;27;40403;-76
2022/03/06 00:04:30;;;;;;;5.10;3.10;;;;;;;3.86;45.03;99372.34;5096887;27;42491;-76
2022/03/06 00:06:58;;;;;;;6.00;3.33;;;;;;;3.81;45.34;99369.00;5114620;27;42850;-76
2022/03/06 00:09:25;;;;;;;4.97;3.10;;;;;;;3.80;45.15;99376.88;5131072;27;42502;-75
2022/03/06 00:11:54;;;;;;;6.07;3.57;;;;;;;3.81;44.98;99379.47;5115007;27;41117;-76
2022/03/06 00:14:24;;;;;;;5.80;3.20;;;;;;;3.78;45.40;99387.41;5132906;27;43177;-76
2022/03/06 00:16:52;;;;;;;7.17;2.90;;;;;;;3.75;45.11;99387.47;5114214;27;42936;-76
2022/03/06 00:19:20;;;;;;;7.03;3.70;;;;;;;3.75;45.79;99387.47;5132679;27;43294;-76
2022/03/06 00:21:47;;;;;;;3.80;2.93;;;;;;;3.73;45.10;99389.28;5132830;27;39974;-76
2022/03/06 00:24:15;;;;;;;4.47;2.73;;;;;;;3.72;45.23;99392.78;5096846;27;40511;-76
2022/03/06 00:26:43;;;;;;;3.00;2.70;;;;;;;3.73;44.95;99391.91;5132736;27;42925;-76
2022/03/06 00:29:10;;;;;;;6.37;3.30;;;;;;;3.74;44.95;99390.13;5096627;27;41375;-76
2022/03/06 00:31:39;;;;;;;7.33;3.67;;;;;;;3.72;45.26;99391.94;5114196;27;41343;-76
2022/03/06 00:34:07;;;;;;;4.60;3.30;;;;;;;3.70;46.11;99384.16;5096992;27;41676;-76
2022/03/06 00:36:37;;;;;;;5.87;2.93;;;;;;;3.70;45.47;99383.28;5132756;27;42589;-76
2022/03/06 00:39:05;;;;;;;5.43;4.00;;;;;;;3.58;45.24;99368.75;5113845;27;42523;-76
2022/03/06 00:41:33;;;;;;;5.07;3.60;;;;;;;3.70;45.28;99391.13;5148564;27;40970;-76
2022/03/06 00:44:00;;;;;;;5.30;3.13;;;;;;;3.70;45.26;99393.75;5130514;27;41888;-76
2022/03/06 00:46:28;;;;;;;7.47;4.03;;;;;;;3.59;45.86;99376.53;5148693;27;41415;-76
2022/03/06 00:48:57;;;;;;;5.87;3.37;;;;;;;3.69;45.60;99398.13;5130683;27;43085;-76
2022/03/06 00:51:26;;;;;;;4.20;3.30;;;;;;;3.67;45.38;99402.56;5131144;27;39058;-76
2022/03/06 00:53:54;;;;;;;6.80;3.83;;;;;;;3.67;45.43;99399.06;5096721;27;40870;-76
2022/03/06 00:56:21;;;;;;;4.30;3.13;;;;;;;3.52;44.99;99384.59;5132437;27;42807;-76
2022/03/06 00:58:49;;;;;;;6.67;4.03;;;;;;;3.61;45.85;99392.22;5130502;27;42351;-76
2022/03/06 01:01:17;;;;;;;7.27;4.03;;;;;;;3.57;47.01;99387.97;5132380;27;40954;-76
2022/03/06 01:03:44;;;;;;;6.73;3.47;;;;;;;3.53;46.26;99396.81;5113475;27;41684;-76
2022/03/06 01:06:13;;;;;;;5.67;3.57;;;;;;;3.49;46.37;99389.91;5113992;27;42988;-76
2022/03/06 01:08:41;;;;;;;3.87;3.10;;;;;;;3.45;46.19;99393.53;5131764;27;42453;-76
2022/03/06 01:11:08;;;;;;;4.77;3.40;;;;;;;3.42;45.85;99388.34;5149344;27;40011;-76
2022/03/06 01:13:38;;;;;;;3.70;3.00;;;;;;;3.37;46.00;99395.47;5135635;27;41833;-76
2022/03/06 01:16:05;;;;;;;4.00;2.97;;;;;;;3.32;46.05;99397.34;5134380;27;43664;-76
2022/03/06 01:18:33;;;;;;;4.30;3.10;;;;;;;3.25;45.72;99391.38;5134237;27;42112;-76
2022/03/06 01:21:01;;;;;;;4.87;3.17;;;;;;;3.20;47.01;99388.91;5134346;27;40275;-76
2022/03/06 01:23:30;;;;;;;6.47;4.03;;;;;;;3.16;47.09;99387.25;5116544;27;41679;-76
2022/03/06 01:25:57;;;;;;;3.67;2.77;;;;;;;3.07;46.91;99377.00;5100012;27;41684;-76
2022/03/06 01:28:25;;;;;;;5.13;3.27;;;;;;;3.15;47.35;99385.53;5151414;27;42999;-76
2022/03/06 01:30:53;;;;;;;5.30;3.37;;;;;;;3.14;47.36;99389.03;5100166;27;38624;-76
2022/03/06 01:33:20;;;;;;;4.60;3.40;;;;;;;3.12;47.54;99392.56;5116742;27;41117;-76
2022/03/06 01:35:48;;;;;;;4.57;3.30;;;;;;;3.10;47.50;99392.59;5134102;27;42795;-76
2022/03/06 01:38:15;;;;;;;6.83;3.70;;;;;;;3.10;47.18;99382.13;5099137;27;43995;-76
2022/03/06 01:40:44;;;;;;;6.47;3.40;;;;;;;3.10;46.87;99397.84;5151013;27;39943;-76
2022/03/06 01:43:11;;;;;;;4.67;2.87;;;;;;;3.09;46.68;99390.88;5119755;27;40433;-76
2022/03/06 01:45:40;;;;;;;5.73;3.17;;;;;;;3.11;47.34;99396.94;5136800;27;42490;-76
2022/03/06 01:48:09;;;;;;;6.47;3.80;;;;;;;3.01;47.18;99368.44;5137146;27;43524;-76
2022/03/06 01:50:38;;;;;;;7.00;3.73;;;;;;;3.09;47.56;99377.81;5137350;27;41478;-76
2022/03/06 01:53:09;;;;;;;6.50;3.50;;;;;;;3.11;47.70;99380.38;5105817;27;40839;-76
2022/03/06 01:55:37;;;;;;;4.67;3.07;;;;;;;3.12;47.62;99375.13;5151338;27;41785;-77
2022/03/06 01:58:09;;;;;;;3.90;3.27;;;;;;;3.11;47.71;99383.88;5134932;27;43136;-75
2022/03/06 02:00:39;;;;;;;6.57;3.90;;;;;;;3.12;48.14;99369.88;5149933;27;41900;-76
2022/03/06 02:03:07;;;;;;;7.23;3.83;;;;;;;3.06;48.07;99363.97;5154946;27;41634;-76
2022/03/06 02:05:35;;;;;;;5.03;3.50;;;;;;;3.08;47.80;99368.25;5119692;27;42581;-76
2022/03/06 02:08:03;;;;;;;4.63;3.27;;;;;;;3.08;48.40;99368.25;5155528;27;42346;-76
2022/03/06 02:10:30;;;;;;;5.47;3.07;;;;;;;3.11;48.18;99376.00;5136899;27;38913;-75
2022/03/06 02:12:58;;;;;;;6.10;3.10;;;;;;;3.07;47.87;99366.53;5155411;27;41557;-76
2022/03/06 02:15:28;;;;;;;7.70;3.77;;;;;;;3.08;48.26;99357.78;5119883;27;41984;-76
2022/03/06 02:17:56;;;;;;;4.90;2.93;;;;;;;3.09;48.43;99369.94;5119249;27;40975;-76
2022/03/06 02:20:25;;;;;;;6.40;3.63;;;;;;;3.10;48.59;99366.44;5155710;27;40934;-76
2022/03/06 02:22:56;;;;;;;8.70;4.23;;;;;;;2.98;48.53;99352.78;5135601;27;41852;-76
2022/03/06 02:25:25;;;;;;;4.57;3.33;;;;;;;3.08;48.65;99365.66;5136775;27;43017;-76
2022/03/06 02:27:54;;;;;;;5.67;3.60;;;;;;;3.08;48.89;99365.66;5119624;27;42540;-76
2022/03/06 02:30:24;;;;;;;5.77;3.20;;;;;;;3.08;48.28;99368.25;5119432;27;41404;-76
2022/03/06 02:32:53;;;;;;;4.73;3.03;;;;;;;3.08;48.32;99373.50;5136857;27;42700;-76
2022/03/06 02:35:22;;;;;;;3.37;3.07;;;;;;;3.08;48.15;99378.72;5136727;27;42069;-76
2022/03/06 02:37:50;;;;;;;5.13;3.20;;;;;;;3.09;48.48;99369.13;5136101;27;41397;-76
2022/03/06 02:40:21;;;;;;;4.53;2.60;;;;;;;3.09;48.38;99367.34;5136775;27;39857;-76
2022/03/06 02:42:51;;;;;;;3.03;2.50;;;;;;;3.09;48.38;99375.19;5118918;27;41024;-75
2022/03/06 02:45:21;;;;;;;5.93;3.23;;;;;;;3.05;48.17;99368.31;5171221;27;42578;-76
2022/03/06 02:47:50;;;;;;;3.93;3.10;;;;;;;3.08;48.33;99368.25;5136825;27;42753;-76
2022/03/06 02:50:20;;;;;;;5.17;3.07;;;;;;;3.07;48.24;99366.53;5136669;27;40031;-76
2022/03/06 02:52:48;;;;;;;5.97;3.40;;;;;;;3.01;48.15;99358.81;5154840;27;41579;-76
2022/03/06 02:55:17;;;;;;;3.97;3.00;;;;;;;3.01;48.18;99356.22;5136648;27;43756;-76
2022/03/06 02:57:48;;;;;;;4.97;3.67;;;;;;;3.05;48.36;99365.72;5131183;27;42515;-76
2022/03/06 03:00:18;;;;;;;5.80;3.23;;;;;;;3.05;47.96;99368.31;5133309;27;40980;-76
2022/03/06 03:02:49;;;;;;;6.80;3.60;;;;;;;3.00;47.96;99364.94;5114788;27;40350;-76
2022/03/06 03:05:18;;;;;;;5.60;3.10;;;;;;;3.04;48.04;99369.22;5129690;27;43547;-77
2022/03/06 03:07:48;;;;;;;4.47;3.13;;;;;;;3.01;48.48;99366.66;5129303;27;40889;-76
2022/03/06 03:10:17;;;;;;;6.70;3.70;;;;;;;2.97;48.93;99372.88;5118855;27;41267;-75
2022/03/06 03:12:47;;;;;;;6.37;3.33;;;;;;;2.95;48.69;99366.84;5136036;27;41683;-76
2022/03/06 03:15:16;;;;;;;4.23;2.70;;;;;;;2.96;48.80;99362.47;5118915;27;44971;-76
2022/03/06 03:17:44;;;;;;;5.60;3.67;;;;;;;2.94;49.20;99370.34;5130521;27;41787;-76
2022/03/06 03:20:14;;;;;;;5.43;3.60;;;;;;;2.90;49.29;99363.44;5136073;27;40728;-76
2022/03/06 03:22:42;;;;;;;5.77;3.37;;;;;;;2.86;49.02;99361.78;5154090;27;41435;-76
2022/03/06 03:25:09;;;;;;;7.50;3.73;;;;;;;2.83;48.84;99361.88;5118498;27;44362;-75
2022/03/06 03:27:38;;;;;;;5.67;3.50;;;;;;;2.92;48.87;99376.50;5115274;27;42258;-76
2022/03/06 03:30:10;;;;;;;4.83;3.40;;;;;;;2.88;48.79;99373.94;5114983;27;41253;-76
2022/03/06 03:32:39;;;;;;;6.20;3.30;;;;;;;2.86;49.21;99378.34;5116963;27;41992;-76
2022/03/06 03:35:08;;;;;;;6.97;3.53;;;;;;;2.83;49.14;99377.59;5118067;27;42824;-76
2022/03/06 03:37:36;;;;;;;5.73;4.03;;;;;;;2.80;49.37;99375.03;5134573;27;43347;-76
2022/03/06 03:40:06;;;;;;;6.83;3.67;;;;;;;2.76;49.42;99371.63;5118559;27;40294;-75
2022/03/06 03:42:33;;;;;;;6.60;3.33;;;;;;;2.71;49.33;99370.00;5135537;27;42405;-77
2022/03/06 03:45:01;;;;;;;3.97;3.17;;;;;;;2.68;49.13;99372.69;5130138;27;43705;-76
2022/03/06 03:47:31;;;;;;;5.67;2.87;;;;;;;2.63;49.20;99385.00;5132346;27;42235;-76
2022/03/06 03:49:58;;;;;;;5.43;2.90;;;;;;;2.57;49.07;99385.16;5132227;27;39997;-76
2022/03/06 03:52:25;;;;;;;4.70;3.03;;;;;;;2.51;49.28;99376.53;5114394;27;42324;-76
2022/03/06 03:54:53;;;;;;;5.33;3.47;;;;;;;2.42;49.22;99371.50;5126226;27;41874;-75
2022/03/06 03:57:23;;;;;;;4.43;3.50;;;;;;;2.49;49.43;99388.75;5118237;27;41298;-75
2022/03/06 03:59:51;;;;;;;5.67;3.07;;;;;;;2.45;49.43;99402.81;5130446;27;40870;-76
2022/03/06 04:02:18;;;;;;;6.13;3.60;;;;;;;2.42;49.57;99394.16;5134392;27;41535;-77
2022/03/06 04:04:49;;;;;;;4.67;3.70;;;;;;;2.38;49.93;99390.75;5134676;27;41551;-76
2022/03/06 04:07:17;;;;;;;4.83;3.73;;;;;;;2.31;49.89;99388.31;5117980;27;41138;-76
2022/03/06 04:09:45;;;;;;;5.13;3.40;;;;;;;2.26;50.41;99392.75;5117984;27;40250;-76
2022/03/06 04:12:12;;;;;;;5.20;3.50;;;;;;;2.27;49.89;99392.72;5118027;27;41643;-76
2022/03/06 04:14:40;;;;;;;6.13;3.63;;;;;;;2.25;50.42;99394.50;5113589;27;43190;-76
2022/03/06 04:17:08;;;;;;;5.53;3.60;;;;;;;2.20;50.50;99393.75;5114338;27;43151;-76
2022/03/06 04:19:35;;;;;;;4.83;3.07;;;;;;;2.15;50.95;99398.19;5132679;27;41172;-76
2022/03/06 04:22:05;;;;;;;3.87;3.10;;;;;;;1.76;51.03;99343.25;5119967;27;40967;-76
2022/03/06 04:24:32;;;;;;;3.93;3.07;;;;;;;2.05;51.42;99386.22;5117693;27;43057;-76
2022/03/06 04:27:00;;;;;;;5.30;3.50;;;;;;;2.14;50.72;99406.94;5134898;27;41120;-76
2022/03/06 04:29:28;;;;;;;6.03;3.70;;;;;;;2.13;50.53;99400.84;5153431;27;40053;-76
2022/03/06 04:31:55;;;;;;;7.37;3.37;;;;;;;2.14;50.71;99409.53;5133748;27;42605;-76
2022/03/06 04:34:23;;;;;;;3.67;2.80;;;;;;;2.10;50.52;99415.75;5114216;27;41990;-76
2022/03/06 04:36:50;;;;;;;5.93;3.57;;;;;;;2.11;50.24;99420.03;5097507;27;41362;-76
2022/03/06 04:39:20;;;;;;;4.10;3.33;;;;;;;2.10;50.53;99415.75;5114241;27;40915;-76
2022/03/06 04:41:47;;;;;;;4.67;2.87;;;;;;;2.08;50.69;99413.16;5124419;27;41694;-75
2022/03/06 04:44:15;;;;;;;4.83;2.90;;;;;;;2.04;50.90;99415.84;5153089;27;42947;-76
2022/03/06 04:46:43;;;;;;;5.93;3.40;;;;;;;1.92;50.93;99396.03;5119298;27;43766;-76
2022/03/06 04:49:10;;;;;;;5.10;3.47;;;;;;;2.00;51.34;99419.41;5121150;27;38966;-76
2022/03/06 04:51:38;;;;;;;5.23;3.60;;;;;;;1.99;51.38;99422.91;5132409;27;41707;-76
2022/03/06 04:54:07;;;;;;;4.90;2.97;;;;;;;1.98;51.17;99429.03;5116545;27;41962;-76
2022/03/06 04:56:36;;;;;;;5.57;3.40;;;;;;;1.98;51.09;99429.03;5135782;27;43085;-76
2022/03/06 04:59:04;;;;;;;6.47;3.27;;;;;;;1.93;51.76;99428.25;5117404;27;41218;-76
2022/03/06 05:01:32;;;;;;;4.80;3.27;;;;;;;1.82;51.42;99404.94;5150358;27;41621;-76
2022/03/06 05:04:00;;;;;;;5.87;3.57;;;;;;;1.82;51.00;99420.63;5156396;27;42560;-76
2022/03/06 05:06:28;;;;;;;5.97;3.23;;;;;;;1.90;51.18;99433.53;5120768;27;41161;-76
2022/03/06 05:08:56;;;;;;;6.90;3.73;;;;;;;1.88;51.06;99435.28;5137709;27;41569;-76
2022/03/06 05:11:24;;;;;;;5.77;3.80;;;;;;;1.85;51.34;99430.16;5126823;27;41850;-75
2022/03/06 05:13:54;;;;;;;7.27;3.70;;;;;;;1.78;51.85;99422.41;5099881;27;43195;-76
2022/03/06 05:16:21;;;;;;;4.30;2.80;;;;;;;1.79;51.67;99437.19;5117158;27;43473;-76
2022/03/06 05:18:49;;;;;;;4.50;3.23;;;;;;;1.74;51.70;99431.19;5135799;27;39976;-76
2022/03/06 05:21:17;;;;;;;4.67;3.37;;;;;;;1.71;52.33;99426.03;5120647;27;41784;-76
2022/03/06 05:23:45;;;;;;;6.03;3.70;;;;;;;1.67;52.38;99426.09;5137260;27;42878;-76
2022/03/06 05:26:12;;;;;;;5.37;3.50;;;;;;;1.69;51.96;99435.63;5120054;27;42177;-75
2022/03/06 05:28:41;;;;;;;3.67;3.17;;;;;;;1.71;51.45;99438.22;5156166;27;39839;-76
2022/03/06 05:31:10;;;;;;;8.17;3.90;;;;;;;1.68;52.49;99428.69;5137167;27;40611;-76
2022/03/06 05:33:38;;;;;;;4.30;3.30;;;;;;;1.55;52.25;99410.66;5136559;27;43116;-76
2022/03/06 05:36:06;;;;;;;3.53;2.43;;;;;;;1.64;52.08;99432.22;5120272;27;41362;-76
2022/03/06 05:38:34;;;;;;;6.60;3.47;;;;;;;1.62;52.63;99433.13;5137280;27;40013;-76
2022/03/06 05:41:01;;;;;;;3.80;2.77;;;;;;;1.57;52.33;99435.00;5137295;27;42498;-76
2022/03/06 05:43:29;;;;;;;4.53;3.40;;;;;;;1.52;53.25;99435.06;5120139;27;41827;-76
2022/03/06 05:45:58;;;;;;;5.47;3.27;;;;;;;1.51;52.88;99446.38;5155651;27;42088;-76
2022/03/06 05:48:27;;;;;;;6.33;3.73;;;;;;;1.46;53.86;99436.91;5119526;27;40397;-76
2022/03/06 05:50:55;;;;;;;3.63;2.87;;;;;;;1.35;53.57;99426.66;5156075;27;41775;-76
2022/03/06 05:53:23;;;;;;;6.20;3.37;;;;;;;1.40;53.47;99433.50;5120099;27;41886;-75
2022/03/06 05:55:50;;;;;;;5.63;3.33;;;;;;;1.43;53.41;99443.03;5136846;27;43023;-75
2022/03/06 05:58:18;;;;;;;6.20;3.60;;;;;;;1.41;53.61;99434.38;5119441;27;41001;-76
2022/03/06 06:00:46;;;;;;;3.80;2.83;;;;;;;1.42;53.13;99441.31;5136622;27;40986;-76
2022/03/06 06:03:13;;;;;;;5.73;3.77;;;;;;;1.41;53.98;99439.59;5151627;27;42717;-76
2022/03/06 06:05:43;;;;;;;5.10;3.00;;;;;;;1.34;54.01;99433.63;5136772;27;42383;-75
2022/03/06 06:08:11;;;;;;;4.23;2.77;;;;;;;1.42;53.57;99450.00;5136320;27;41016;-76
2022/03/06 06:10:38;;;;;;;4.53;3.23;;;;;;;1.41;54.25;99442.19;5133825;27;40655;-76
2022/03/06 06:13:08;;;;;;;4.63;3.50;;;;;;;1.41;53.64;99452.63;5115714;27;43132;-76
2022/03/06 06:15:37;;;;;;;5.87;3.53;;;;;;;1.41;53.50;99450.03;5136026;27;42596;-76
2022/03/06 06:18:04;;;;;;;5.57;3.40;;;;;;;1.40;53.74;99453.53;5135637;27;38969;-75
2022/03/06 06:20:33;;;;;;;4.97;2.83;;;;;;;1.39;53.48;99451.81;5167284;27;41965;-75
2022/03/06 06:23:02;;;;;;;4.27;2.97;;;;;;;1.44;53.24;99461.28;5135667;27;42654;-76
2022/03/06 06:25:30;;;;;;;4.60;2.60;;;;;;;1.39;53.15;99441.38;5116899;27;43629;-75
2022/03/06 06:27:57;;;;;;;5.23;3.20;;;;;;;1.52;53.51;99462.91;5154382;27;40915;-75
2022/03/06 06:30:25;;;;;;;4.90;3.43;;;;;;;1.56;53.13;99456.75;5163628;27;41482;-75
2022/03/06 06:32:53;;;;;;;5.83;3.33;;;;;;;1.39;53.31;99420.50;5118916;27;43460;-76
2022/03/06 06:35:21;;;;;;;4.47;3.13;;;;;;;1.68;52.70;99465.25;5136537;27;42299;-75
2022/03/06 06:37:51;;;;;;;3.57;2.60;;;;;;;1.73;52.65;99455.56;5135345;27;40551;-76
2022/03/06 06:40:20;;;;;;;4.23;3.40;;;;;;;1.86;52.53;99464.03;5119289;27;41784;-75
2022/03/06 06:42:47;;;;;;;4.93;3.10;;;;;;;1.89;52.51;99455.28;5135742;27;43118;-75
2022/03/06 06:45:15;;;;;;;5.17;3.07;;;;;;;2.04;52.53;99473.31;5138312;27;42256;-75
2022/03/06 06:47:43;;;;;;;6.17;3.53;;;;;;;2.13;52.31;99476.59;5151232;27;41958;-77
2022/03/06 06:50:11;;;;;;;5.27;3.37;;;;;;;2.20;52.37;99477.38;5117472;27;40619;-75
2022/03/06 06:52:44;;;;;;;4.47;3.33;;;;;;;2.28;52.15;99475.47;5165567;27;42704;-77
2022/03/06 06:55:11;;;;;;;6.03;4.03;;;;;;;2.42;52.06;99472.59;5152753;27;42643;-76
2022/03/06 06:57:41;;;;;;;5.20;3.27;;;;;;;2.55;51.90;99476.69;5134569;27;40979;-75
2022/03/06 07:00:09;;;;;;;4.90;3.60;;;;;;;2.64;51.06;99486.06;5134367;27;41652;-77
2022/03/06 07:02:37;;;;;;;4.77;3.40;;;;;;;2.77;50.99;99482.31;5133334;27;43553;-75
2022/03/06 07:05:05;;;;;;;6.47;4.03;;;;;;;2.89;50.73;99482.06;5118471;27;44027;-76
2022/03/06 07:07:32;;;;;;;3.13;2.73;;;;;;;3.00;50.28;99489.66;5133555;27;39809;-77
2022/03/06 07:10:00;;;;;;;5.73;3.77;;;;;;;3.00;49.98;99474.84;5152194;27;41764;-76
2022/03/06 07:12:28;;;;;;;4.10;2.83;;;;;;;3.19;50.07;99493.63;5133606;27;43505;-76
2022/03/06 07:14:57;;;;;;;4.50;3.47;;;;;;;3.35;49.61;99501.97;5151928;27;42304;-78
2022/03/06 07:17:24;;;;;;;8.43;3.97;;;;;;;3.45;49.38;99511.34;5133214;27;40047;-78
2022/03/06 07:19:52;;;;;;;3.60;2.97;;;;;;;3.52;49.33;99515.53;5152441;27;42479;-76
2022/03/06 07:22:19;;;;;;;5.33;3.50;;;;;;;3.61;49.15;99512.69;5136434;27;44216;-77
2022/03/06 07:24:47;;;;;;;3.73;3.03;;;;;;;3.70;48.86;99516.88;5133813;27;42557;-76
2022/03/06 07:27:15;;;;;;;5.37;3.67;;;;;;;3.84;48.78;99520.84;5133515;27;40991;-76
2022/03/06 07:29:43;;;;;;;5.43;4.17;;;;;;;3.83;48.31;99506.03;5133289;27;40758;-76
2022/03/06 07:32:11;;;;;;;5.03;3.53;;;;;;;4.05;48.26;99522.09;5132991;27;41882;-77
2022/03/06 07:34:39;;;;;;;5.37;3.90;;;;;;;4.10;48.40;99511.47;5133225;27;41335;-76
2022/03/06 07:37:07;;;;;;;5.63;4.07;;;;;;;4.16;47.71;99504.31;5116896;27;41331;-76
2022/03/06 07:39:34;;;;;;;7.17;4.00;;;;;;;4.41;47.72;99530.75;5133467;27;42058;-76
2022/03/06 07:42:02;;;;;;;6.83;3.67;;;;;;;4.52;47.46;99527.81;5136078;27;42982;-77
2022/03/06 07:44:30;;;;;;;5.67;3.63;;;;;;;4.65;47.15;99530.06;5116829;27;41120;-76
2022/03/06 07:46:58;;;;;;;7.37;4.53;;;;;;;4.77;46.72;99521.00;5134565;27;40475;-77
2022/03/06 07:49:27;;;;;;;6.83;3.83;;;;;;;4.92;46.69;99527.56;5131723;27;40807;-76
2022/03/06 07:51:54;;;;;;;5.93;3.73;;;;;;;5.07;46.98;99532.34;5133091;27;42721;-77
2022/03/06 07:54:22;;;;;;;5.93;3.57;;;;;;;5.25;46.83;99530.97;5149522;27;43251;-77
2022/03/06 07:56:50;;;;;;;4.30;3.87;;;;;;;5.37;46.48;99534.06;5151587;27;39772;-76
2022/03/06 07:59:18;;;;;;;5.67;4.17;;;;;;;5.41;45.56;99547.97;5132710;27;41952;-76
2022/03/06 08:01:46;;;;;;;6.17;4.30;;;;;;;5.47;45.82;99536.41;5115541;27;41870;-76
2022/03/06 08:04:13;;;;;;;7.00;4.03;;;;;;;5.59;45.47;99546.53;5115205;27;43291;-76
2022/03/06 08:06:43;;;;;;;7.60;4.50;;;;;;;5.75;45.59;99545.16;5131287;27;39341;-76
2022/03/06 08:09:10;;;;;;;5.23;3.63;;;;;;;6.03;45.42;99548.66;5115029;27;40646;-76
2022/03/06 08:11:37;;;;;;;6.03;4.10;;;;;;;6.30;44.77;99551.28;5132108;27;43836;-76
2022/03/06 08:14:05;;;;;;;4.93;3.47;;;;;;;6.25;44.23;99516.34;5115541;27;41519;-77
2022/03/06 08:16:33;;;;;;;5.13;3.73;;;;;;;6.69;43.36;99562.16;5130330;27;38970;-77
2022/03/06 08:19:01;;;;;;;5.67;3.83;;;;;;;7.05;43.87;99554.69;5116207;27;41045;-77
2022/03/06 08:21:28;;;;;;;5.97;4.10;;;;;;;7.38;43.06;99566.63;5132939;27;43283;-77
2022/03/06 08:23:57;;;;;;;5.27;3.80;;;;;;;7.71;42.22;99574.13;5132698;27;42720;-77
2022/03/06 08:26:25;;;;;;;4.97;4.47;;;;;;;7.95;41.37;99573.16;5116381;27;41357;-77
2022/03/06 08:28:53;;;;;;;6.60;3.80;;;;;;;8.19;41.21;99566.00;5152139;27;41281;-77
2022/03/06 08:31:21;;;;;;;6.70;4.30;;;;;;;8.56;40.41;99592.59;5131397;27;43644;-77
2022/03/06 08:33:49;;;;;;;5.77;4.27;;;;;;;8.72;38.67;99598.09;5151377;27;43233;-78
2022/03/06 08:36:16;;;;;;;4.87;3.73;;;;;;;8.81;38.71;99602.97;5125998;27;39081;-77
2022/03/06 08:38:44;;;;;;;4.33;3.90;;;;;;;8.92;38.30;99603.34;5153597;27;42563;-77
2022/03/06 08:41:13;;;;;;;6.83;4.20;;;;;;;9.41;38.18;99598.50;5157968;27;43828;-77
2022/03/06 08:43:41;;;;;;;6.40;4.20;;;;;;;11.75;35.00;99613.13;5114978;27;41356;-76
2022/03/06 08:46:08;;;;;;;5.23;3.70;;;;;;;15.43;31.54;99627.25;5149388;27;39634;-77
2022/03/06 08:48:37;;;;;;;4.97;4.27;;;;;;;18.34;26.37;99660.44;5150810;27;41776;-78
2022/03/06 08:51:05;;;;;;;5.53;3.90;;;;;;;19.75;24.31;99645.75;5152021;27;42782;-77
2022/03/06 08:53:33;;;;;;;4.37;3.97;;;;;;;21.12;22.78;99669.13;5129679;27;41764;-78
2022/03/06 08:56:01;;;;;;;5.00;4.50;;;;;;;20.77;21.63;99683.13;5133114;27;39634;-77
2022/03/06 08:58:30;;;;;;;6.20;4.53;;;;;;;19.50;21.45;99695.41;5111507;27;43680;-77
2022/03/06 09:00:57;;;;;;;5.03;4.50;;;;;;;18.74;22.49;99680.38;5114187;27;43765;-77
2022/03/06 09:03:25;;;;;;;4.73;4.23;;;;;;;17.51;23.07;99680.44;5131157;27;43187;-77
2022/03/06 09:05:53;;;;;;;5.40;4.57;;;;;;;16.33;23.09;99673.34;5144056;27;39072;-77
2022/03/06 09:08:20;;;;;;;4.27;3.87;;;;;;;15.79;24.22;99677.22;5172222;27;42558;-77
2022/03/06 09:10:48;;;;;;;4.70;3.63;;;;;;;15.41;25.79;99655.84;5158293;27;43598;-78
2022/03/06 09:13:16;;;;;;;4.77;4.30;;;;;;;14.82;26.00;99616.44;5131215;27;42314;-77
2022/03/06 09:15:45;;;;;;;5.77;4.20;;;;;;;14.49;26.21;99660.34;5116974;27;39899;-76
2022/03/06 09:18:13;;;;;;;4.50;3.90;;;;;;;14.77;26.67;99650.53;5133823;27;41456;-77
2022/03/06 09:20:41;;;;;;;5.90;4.07;;;;;;;15.06;26.61;99644.09;5134331;27;42836;-77
2022/03/06 09:23:09;;;;;;;5.27;4.27;;;;;;;14.84;26.71;99636.69;5129429;27;41647;-78
2022/03/06 09:25:36;;;;;;;5.20;4.40;;;;;;;14.88;26.27;99648.00;5151128;27;40939;-77
2022/03/06 09:28:05;;;;;;;4.57;4.13;;;;;;;14.77;25.50;99653.19;5150491;27;41605;-77
2022/03/06 09:30:33;;;;;;;4.43;4.03;;;;;;;14.84;26.14;99641.16;5133820;27;43054;-77
2022/03/06 09:33:03;;;;;;;4.67;4.00;;;;;;;15.41;25.15;99650.53;5127915;27;42189;-79
2022/03/06 09:35:37;;;;;;;6.30;5.10;;;;;;;15.38;25.37;99649.88;5168513;27;40140;-78
2022/03/06 09:38:05;;;;;;;5.23;4.40;;;;;;;14.79;25.26;99637.97;5144601;27;40328;-77
2022/03/06 09:40:32;;;;;;;4.87;4.37;;;;;;;14.69;25.62;99657.25;5158340;27;42654;-76
2022/03/06 09:43:00;;;;;;;8.00;5.03;;;;;;;14.63;25.42;99662.97;5145739;27;42348;-77
2022/03/06 09:45:31;;;;;;;5.30;4.40;;;;;;;14.74;25.52;99628.44;5123324;27;41245;-77
2022/03/06 09:47:59;;;;;;;5.70;4.43;;;;;;;15.16;25.70;99650.50;5134180;27;41852;-77
2022/03/06 09:50:28;;;;;;;4.73;4.23;;;;;;;15.24;25.69;99636.63;5135730;27;41532;-76
2022/03/06 09:52:56;;;;;;;4.37;3.77;;;;;;;16.02;24.34;99659.56;5147638;27;42410;-77
2022/03/06 09:55:23;;;;;;;5.87;5.10;;;;;;;16.49;24.28;99610.63;5119976;27;40048;-77
2022/03/06 09:57:54;;;;;;;4.77;4.17;;;;;;;17.39;24.28;99651.91;5118187;27;40607;-77
2022/03/06 10:00:21;;;;;;;5.17;4.40;;;;;;;17.36;24.05;99657.50;5142378;27;42804;-77
2022/03/06 10:02:54;;;;;;;4.53;4.17;;;;;;;17.87;23.54;99657.09;5153249;27;42648;-77
2022/03/06 10:05:34;;;;;;;5.93;5.33;;;;;;;18.69;21.46;99677.19;5153691;27;40882;-76
2022/03/06 10:08:21;;;;;;;5.30;4.80;;;;;;;18.11;22.34;99678.41;5153048;27;40415;-76
2022/03/06 10:10:51;;;;;;;6.33;4.83;;;;;;;16.96;23.89;99662.38;5154231;27;41673;-76
2022/03/06 10:13:20;;;;;;;7.67;4.97;;;;;;;15.79;24.93;99636.31;5136602;27;41256;-76
2022/03/06 10:16:09;;;;;;;6.77;4.93;;;;;;;14.99;25.12;99659.66;5115515;27;38631;-75
2022/03/06 10:18:38;;;;;;;6.83;4.97;;;;;;;14.23;26.11;99653.16;5116562;27;40720;-75
2022/03/06 10:21:29;;;;;;;5.80;4.90;;;;;;;13.72;28.08;99631.59;5116163;27;42901;-75
2022/03/06 10:23:57;;;;;;;6.23;5.03;;;;;;;13.13;28.72;99622.78;5108466;27;41129;-76
2022/03/06 10:26:26;;;;;;;5.57;4.40;;;;;;;12.73;29.28;99615.53;5133711;27;40718;-77
2022/03/06 10:28:58;;;;;;;5.97;4.00;;;;;;;12.55;29.72;99626.28;5132480;27;41740;-77
2022/03/06 10:31:28;;;;;;;5.20;4.10;;;;;;;12.41;30.29;99615.59;5133859;27;42824;-76
2022/03/06 10:34:01;;;;;;;5.83;3.90;;;;;;;12.46;30.10;99616.19;5153587;27;43383;-76
2022/03/06 10:36:48;;;;;;;6.07;3.87;;;;;;;12.51;29.24;99630.03;5116168;27;39039;-76
2022/03/06 10:39:18;;;;;;;4.17;3.67;;;;;;;12.38;28.60;99634.34;5141011;27;41668;-76
2022/03/06 10:41:48;;;;;;;5.13;3.53;;;;;;;12.51;28.21;99640.66;5153423;27;42822;-76
2022/03/06 10:44:17;;;;;;;5.57;3.60;;;;;;;12.42;27.29;99651.84;5149564;27;43036;-76
2022/03/06 10:46:58;;;;;;;4.33;3.80;;;;;;;12.62;27.19;99653.31;5150402;27;39979;-76
2022/03/06 10:49:26;;;;;;;4.27;3.73;;;;;;;12.81;27.52;99645.16;5133951;27;40676;-76
2022/03/06 10:51:55;;;;;;;5.00;3.87;;;;;;;13.12;26.76;99653.00;5154326;27;43833;-77
2022/03/06 10:54:23;;;;;;;4.27;3.70;;;;;;;13.38;26.54;99647.94;5135196;27;42689;-76
2022/03/06 10:56:53;;;;;;;6.17;4.33;;;;;;;13.40;26.17;99635.41;5119377;27;41215;-77
2022/03/06 10:59:24;;;;;;;5.93;3.60;;;;;;;13.25;25.92;99646.03;5117682;27;41887;-77
2022/03/06 11:01:52;;;;;;;4.97;4.23;;;;;;;13.20;26.45;99618.88;5115536;27;45143;-77
2022/03/06 11:04:21;;;;;;;4.40;3.63;;;;;;;13.27;26.84;99646.78;5115301;27;43126;-77
2022/03/06 11:06:52;;;;;;;4.83;4.03;;;;;;;13.24;26.46;99652.28;5134437;27;40024;-77
2022/03/06 11:09:21;;;;;;;5.50;4.07;;;;;;;13.07;26.81;99649.78;5130243;27;41641;-77
2022/03/06 11:11:52;;;;;;;5.90;4.33;;;;;;;12.81;26.32;99647.81;5133869;27;43680;-77
2022/03/06 11:14:20;;;;;;;4.50;3.70;;;;;;;12.58;27.01;99626.09;5114699;27;41120;-77
2022/03/06 11:16:48;;;;;;;6.07;4.60;;;;;;;12.68;27.00;99642.34;5132583;27;40514;-77
2022/03/06 11:19:16;;;;;;;6.33;4.20;;;;;;;12.57;26.62;99640.34;5122496;27;40633;-77
2022/03/06 11:21:45;;;;;;;5.90;4.40;;;;;;;12.54;26.29;99651.13;5156880;27;43326;-76
2022/03/06 11:24:17;;;;;;;4.50;3.93;;;;;;;12.43;26.56;99637.63;5155538;27;41399;-77
2022/03/06 11:27:24;;;;;;;4.43;3.77;;;;;;;12.44;26.87;99644.63;5139019;27;39130;-77
2022/03/06 11:30:08;;;;;;;3.87;3.47;;;;;;;12.19;26.24;99639.88;5122010;27;42734;-77
2022/03/06 11:32:39;;;;;;;4.00;3.60;;;;;;;11.97;26.87;99635.84;5136200;27;42908;-77
2022/03/06 11:35:11;;;;;;;3.90;3.50;;;;;;;11.92;26.80;99636.09;5156352;27;41196;-77
2022/03/06 11:37:47;;;;;;;3.77;3.40;;;;;;;11.85;27.22;99624.13;5120991;27;39345;-77
2022/03/06 11:40:34;;;;;;;3.83;3.20;;;;;;;11.77;26.50;99635.16;5135111;27;42360;-77
2022/03/06 11:43:02;;;;;;;4.07;3.23;;;;;;;11.75;26.76;99618.44;5130741;27;42796;-77
2022/03/06 11:45:54;;;;;;;6.30;3.43;;;;;;;12.00;26.96;99622.38;5153911;27;42258;-77
2022/03/06 11:48:24;;;;;;;3.87;3.17;;;;;;;12.34;26.51;99627.53;5133397;27;41946;-77